Terminal Aerodrome Forecast
Issued by NWS Flagstaff, AZ

Home | Current Version | Previous Version | Text Only | Print | Product List | Glossary On
Versions: 1 2 3 4 5 6 7 8 9 10 11 12 13 14 15 16 17 18 19 20
000
FTUS45 KFGZ 270600 AAA
TAFFLG
TAF AMD
KFLG 270638Z 2707/2806 VRB03KT P6SM BKN080
      TEMPO 2707/2709 -SHRA BKN040
     FM271800 24007KT P6SM SCT060 SCT120 PROB30 2718/2723 VRB15G25KT
      5SM -TSRA BKN050CB
     FM280200 VRB03KT P6SM SCT050=

USA.gov is the U.S. government's official web portal to all federal, state and local government web resources and services.